CheckWX is a tool to help pilots better visualize weather data.  It is not intended as a substitute for an official pre-flight weather briefing.

13:48:48 UTC

CWSW METAR
Sparwood / Elk Valley Airport
Sparwood/Elk Valley, Canada
Current

32 mins ago

CWSW 211317Z 36004KT 6SM BR FEW001 SCT008 BKN017 07/06 A3011 RMK SF1ST3SC3 VIS S 2 REDUCED VIS IN LO CLD SLP206
Observed
Sep-21 @ 13:17 UTC
Wind
  • 360° at 4 KTS
Visibility
6 SM
Flight Rules
MVFR
Conditions
Mist
Cloud Levels
  • Few at 100' AGL
  • Scattered at 800' AGL
  • Broken at 1,700' AGL
Temperature
C / 45°F
Dewpoint
C / 43°F
Humidity
93%
Altimeter
30.11" Hg
Pressure
1019.62 hPa
Previous

13 hours ago

CWSW 210100Z 19005KT 150V230 20SM BKN096 14/07 A3001 RMK AC7 LAST STFD OBS/NXT 211300Z SLP176 DENSITY ALT 4500FT
Observed
Sep-21 @ 01:00 UTC
Wind
  • 190° at 5 KTS
Visibility
20 SM
Flight Rules
VFR
Cloud Levels
  • Broken at 9,600' AGL
Temperature
14°C / 57°F
Dewpoint
C / 45°F
Humidity
63%
Altimeter
30.01" Hg
Pressure
1016.22 hPa
Previous

14 hours ago

CWSW 210000Z 19007KT 140V220 20SM FEW056TCU BKN100 14/07 A3000 RMK TCU2AC4 SLP172 DENSITY ALT 4500FT
Observed
Sep-21 @ 00:00 UTC
Wind
  • 190° at 7 KTS
Visibility
20 SM
Flight Rules
VFR
Cloud Levels
  • Few at 5,600' AGL
  • Broken at 10,000' AGL
Temperature
14°C / 57°F
Dewpoint
C / 45°F
Humidity
63%
Altimeter
30" Hg
Pressure
1015.92 hPa